首页
METAR-TAF:

METAR-TAF

机场 :

Hunter Army Airfield / Fort Stewart

薩凡納, 喬治亞, 美国

纬度: 32-01N, 经度: 081-09W, 海拔: 13米

当前天气观测

该预报发布于59分钟前的04:56 UTC
风速4节,风向
温度 27°C
湿度 74%
气压 1017 hPa
能見度: 16.1公里
少量云层高于9000英尺

METAR: KSVN 270456Z AUTO 19004KT 10SM FEW090 27/22 A3002 RMK AO2 SLP168 T02650217 403700240 $

时间: 01:55 (05:55 UTC)

预报

该预报发布于1小时和55分钟前的04:00 UTC
预报有效从27日的 04点(UTC)到 28日的 10点(UTC)
风速6节,风向
能见度10公里或以上
散云层高于5000英尺
短暂存在
从 27日的 13点(UTC)到 27日的 18点(UTC)
风速12节,风向西,有时为18节阵风
成为
从 27日的 20点(UTC)到 27日的 21点(UTC)
风速6节,风向西转西北
能见度10公里或以上
多云层高于7000英尺

TAF: KSVN 270400Z 2704/2810 19006KT 9999 SCT050 QNH2988INS TEMPO 2713/2718 27012G18KT BECMG 2720/2721 29006KT 9999 BKN070 QNH2990INS TX36/2719Z TN24/2710Z

超过4000个机场的气象观测和天气预报(METAR&TAF报告)。

可查询的气象台以黄色和红色小点在地图上表示。

将鼠标移到小点上方,可查看气象台名称。

然后点击查看天气观测和预报。

如需切换地图:点击带黑十字的绿色按钮放大地图;点击带横线的绿色按钮缩小地图;或者点击绿色箭头查看邻近地区的地图。


METAR-TAF: